createdAt,value
2023-03-12T00:01:22.459Z,96549.97
2023-03-12T00:03:54.158Z,96547.22
2023-03-12T00:06:23.578Z,96554.50
2023-03-12T00:08:53.526Z,96555.06
2023-03-12T00:11:23.491Z,96550.28
2023-03-12T00:13:53.181Z,96553.75
2023-03-12T00:16:23.126Z,96552.06
2023-03-12T00:18:59.005Z,96563.22
2023-03-12T00:21:27.938Z,96558.47
2023-03-12T00:23:56.512Z,96558.34
2023-03-12T00:26:28.499Z,96563.88
2023-03-12T00:28:57.360Z,96560.47
2023-03-12T00:31:29.356Z,96560.47
2023-03-12T00:34:00.561Z,96570.59
2023-03-12T00:36:32.310Z,96567.56
2023-03-12T00:39:02.728Z,96570.88
2023-03-12T00:41:31.809Z,96567.66
2023-03-12T00:44:00.606Z,96568.38
2023-03-12T00:46:29.780Z,96569.84
2023-03-12T00:48:59.841Z,96574.47
2023-03-12T00:51:28.863Z,96577.75
2023-03-12T00:53:57.525Z,96572.66
2023-03-12T00:56:26.805Z,96568.91
2023-03-12T00:58:55.804Z,96577.94
2023-03-12T01:01:24.309Z,96567.66
2023-03-12T01:03:53.293Z,96568.88
2023-03-12T01:06:23.295Z,96565.81
2023-03-12T01:08:52.125Z,96554.16
2023-03-12T01:11:22.531Z,96566.72
2023-03-12T01:13:51.393Z,96564.19
2023-03-12T01:16:20.344Z,96560.53
2023-03-12T01:18:48.874Z,96563.78
2023-03-12T01:21:17.571Z,96556.25
2023-03-12T01:23:48.131Z,96566.38
2023-03-12T01:26:16.887Z,96564.09
2023-03-12T01:28:45.782Z,96568.53
2023-03-12T01:31:18.790Z,96565.72
2023-03-12T01:33:50.953Z,96563.06
2023-03-12T01:36:22.329Z,96567.75
2023-03-12T01:38:55.260Z,96562.25
2023-03-12T01:41:27.437Z,96567.59
2023-03-12T01:43:56.210Z,96568.63
2023-03-12T01:46:32.898Z,96565.88
2023-03-12T01:49:10.225Z,96560.41
2023-03-12T01:51:44.218Z,96563.69
2023-03-12T01:54:23.336Z,96560.59
2023-03-12T01:56:53.822Z,96563.75
2023-03-12T01:59:30.416Z,96562.00
2023-03-12T02:01:59.770Z,96565.53
2023-03-12T02:04:32.947Z,96563.38
2023-03-12T02:07:06.864Z,96567.84
2023-03-12T02:09:42.356Z,96564.94
2023-03-12T02:12:13.838Z,96561.44
2023-03-12T02:14:43.321Z,96565.16
2023-03-12T02:17:16.022Z,96569.59
2023-03-12T02:19:58.710Z,96562.38
2023-03-12T02:22:28.019Z,96563.19
2023-03-12T02:25:11.441Z,96554.06
2023-03-12T02:27:42.508Z,96555.81
2023-03-12T02:30:16.021Z,96555.19
2023-03-12T02:32:47.918Z,96548.78
2023-03-12T02:35:19.201Z,96554.69
2023-03-12T02:37:50.670Z,96559.47
2023-03-12T02:40:28.797Z,96561.00
2023-03-12T02:43:03.883Z,96559.88
2023-03-12T02:45:33.359Z,96560.28
2023-03-12T02:48:02.848Z,96568.59
2023-03-12T02:50:31.401Z,96569.28
2023-03-12T02:53:00.022Z,96576.81
2023-03-12T02:55:32.544Z,96572.50
2023-03-12T02:58:02.335Z,96576.91
2023-03-12T03:00:33.293Z,96586.84
2023-03-12T03:03:02.593Z,96579.66
2023-03-12T03:05:31.511Z,96577.78
2023-03-12T03:08:00.711Z,96575.78
2023-03-12T03:10:30.009Z,96585.94
2023-03-12T03:12:58.902Z,96590.81
2023-03-12T03:15:29.276Z,96589.59
2023-03-12T03:17:58.477Z,96594.06
2023-03-12T03:20:30.591Z,96601.44
2023-03-12T03:23:02.756Z,96603.94
2023-03-12T03:25:31.625Z,96595.66
2023-03-12T03:28:03.387Z,96598.72
2023-03-12T03:30:41.490Z,96600.19
2023-03-12T03:33:10.195Z,96601.09
2023-03-12T03:35:39.735Z,96604.06
2023-03-12T03:38:08.913Z,96611.00
2023-03-12T03:40:37.564Z,96606.81
2023-03-12T03:43:06.420Z,96603.66
2023-03-12T03:45:35.143Z,96612.78
2023-03-12T03:48:05.494Z,96613.38
2023-03-12T03:50:34.266Z,96610.63
2023-03-12T03:53:03.070Z,96609.06
2023-03-12T03:55:31.857Z,96620.56
2023-03-12T03:58:00.413Z,96611.44
2023-03-12T04:00:29.103Z,96613.13
2023-03-12T04:02:58.065Z,96615.22
2023-03-12T04:05:28.888Z,96611.25
2023-03-12T04:08:03.163Z,96612.34
2023-03-12T04:10:34.094Z,96604.03
2023-03-12T04:13:02.479Z,96606.19
2023-03-12T04:15:31.583Z,96609.44
2023-03-12T04:18:00.819Z,96611.56
2023-03-12T04:20:32.031Z,96610.03
2023-03-12T04:23:01.388Z,96609.28
2023-03-12T04:25:30.301Z,96606.59
2023-03-12T04:27:59.207Z,96604.47
2023-03-12T04:30:27.839Z,96601.25
2023-03-12T04:32:56.316Z,96594.59
2023-03-12T04:35:25.454Z,96605.78
2023-03-12T04:37:55.774Z,96593.91
2023-03-12T04:40:24.711Z,96601.59
2023-03-12T04:42:53.473Z,96593.56
2023-03-12T04:45:22.370Z,96590.41
2023-03-12T04:47:51.666Z,96595.00
2023-03-12T04:50:20.264Z,96588.03
2023-03-12T04:52:49.764Z,96593.38
2023-03-12T04:55:19.652Z,96587.78
2023-03-12T04:57:48.105Z,96593.13
2023-03-12T05:00:18.175Z,96592.34
2023-03-12T05:02:48.435Z,96594.75
2023-03-12T05:05:17.254Z,96591.28
2023-03-12T05:07:46.107Z,96595.91
2023-03-12T05:10:14.654Z,96592.72
2023-03-12T05:12:44.453Z,96596.22
2023-03-12T05:15:13.261Z,96595.63
2023-03-12T05:17:42.235Z,96596.16
2023-03-12T05:20:12.230Z,96595.31
2023-03-12T05:22:41.757Z,96599.63
2023-03-12T05:25:11.781Z,96584.06
2023-03-12T05:27:40.280Z,96587.78
2023-03-12T05:30:12.748Z,96588.13
2023-03-12T05:32:41.440Z,96596.69
2023-03-12T05:35:10.903Z,96588.50
2023-03-12T05:37:42.897Z,96590.66
2023-03-12T05:40:14.543Z,96590.91
2023-03-12T05:42:42.983Z,96596.56
2023-03-12T05:45:13.153Z,96600.69
2023-03-12T05:47:46.076Z,96601.53
2023-03-12T05:50:16.762Z,96609.56
2023-03-12T05:52:45.344Z,96611.81
2023-03-12T05:55:14.331Z,96602.78
2023-03-12T05:57:43.940Z,96605.28
2023-03-12T06:00:17.358Z,96609.81
2023-03-12T06:02:55.963Z,96601.34
2023-03-12T06:05:24.743Z,96609.13
2023-03-12T06:07:53.562Z,96611.06
2023-03-12T06:10:22.140Z,96621.63
2023-03-12T06:12:54.179Z,96609.16
2023-03-12T06:15:24.303Z,96611.13
2023-03-12T06:17:53.654Z,96613.84
2023-03-12T06:20:22.314Z,96604.59
2023-03-12T06:22:51.092Z,96610.75
2023-03-12T06:25:20.015Z,96623.41
2023-03-12T06:27:48.732Z,96616.94
2023-03-12T06:30:18.259Z,96606.56
2023-03-12T06:32:48.140Z,96609.84
2023-03-12T06:35:17.377Z,96623.25
2023-03-12T06:37:46.149Z,96625.47
2023-03-12T06:40:15.060Z,96626.22
2023-03-12T06:42:43.431Z,96634.28
2023-03-12T06:45:12.857Z,96625.44
2023-03-12T06:47:41.177Z,96629.22
2023-03-12T06:50:12.661Z,96644.16
2023-03-12T06:52:41.893Z,96647.94
2023-03-12T06:55:11.014Z,96649.03
2023-03-12T06:57:39.861Z,96658.00
2023-03-12T07:00:10.413Z,96654.03
2023-03-12T07:02:38.790Z,96653.53
2023-03-12T07:05:09.284Z,96649.25
2023-03-12T07:07:39.429Z,96647.38
2023-03-12T07:10:09.123Z,96654.38
2023-03-12T07:12:37.604Z,96658.66
2023-03-12T07:15:07.521Z,96668.63
2023-03-12T07:17:36.107Z,96666.53
2023-03-12T07:20:05.811Z,96668.28
2023-03-12T07:22:34.602Z,96685.44
2023-03-12T07:25:08.413Z,96669.06
2023-03-12T07:27:36.987Z,96665.09
2023-03-12T07:30:06.802Z,96667.00
2023-03-12T07:32:36.841Z,96649.69
2023-03-12T07:35:06.249Z,96645.47
2023-03-12T07:37:34.726Z,96646.00
2023-03-12T07:40:07.472Z,96646.28
2023-03-12T07:42:36.021Z,96633.44
2023-03-12T07:45:05.008Z,96640.75
2023-03-12T07:47:33.506Z,96639.44
2023-03-12T07:50:02.319Z,96642.69
2023-03-12T07:52:30.781Z,96641.34
2023-03-12T07:54:59.686Z,96641.63
2023-03-12T07:57:29.558Z,96645.91
2023-03-12T07:59:58.480Z,96648.06
2023-03-12T08:02:27.105Z,96647.25
2023-03-12T08:04:55.497Z,96654.25
2023-03-12T08:07:23.968Z,96648.63
2023-03-12T08:09:52.485Z,96652.94
2023-03-12T08:12:21.238Z,96655.63
2023-03-12T08:14:51.168Z,96651.31
2023-03-12T08:17:20.395Z,96650.53
2023-03-12T08:19:48.917Z,96651.34
2023-03-12T08:22:17.804Z,96648.88
2023-03-12T08:24:46.480Z,96646.72
2023-03-12T08:27:15.997Z,96646.72
2023-03-12T08:29:44.404Z,96648.59
2023-03-12T08:32:14.344Z,96651.50
2023-03-12T08:34:43.149Z,96657.72
2023-03-12T08:37:11.668Z,96652.34
2023-03-12T08:39:40.353Z,96651.56
2023-03-12T08:42:09.247Z,96647.28
2023-03-12T08:44:38.034Z,96653.19
2023-03-12T08:47:06.836Z,96645.69
2023-03-12T08:49:36.761Z,96645.94
2023-03-12T08:52:05.805Z,96645.41
2023-03-12T08:54:34.208Z,96653.22
2023-03-12T08:57:02.704Z,96647.84
2023-03-12T08:59:31.159Z,96648.59
2023-03-12T09:01:59.761Z,96642.88
2023-03-12T09:04:28.227Z,96651.78
2023-03-12T09:07:01.087Z,96647.72
2023-03-12T09:09:29.501Z,96651.50
2023-03-12T09:11:57.988Z,96649.31
2023-03-12T09:17:14.932Z,96656.28
2023-03-12T09:19:43.700Z,96659.84
2023-03-12T09:22:14.235Z,96656.34
2023-03-12T09:24:42.730Z,96647.75
2023-03-12T09:27:11.667Z,96649.13
2023-03-12T09:29:57.078Z,96646.34
2023-03-12T09:32:28.444Z,96640.88
2023-03-12T09:34:57.327Z,96630.09
2023-03-12T09:37:27.093Z,96645.88
2023-03-12T09:39:55.735Z,96633.69
2023-03-12T09:42:31.803Z,96638.91
2023-03-12T09:45:04.929Z,96631.09
2023-03-12T09:47:39.077Z,96635.91
2023-03-12T09:50:21.280Z,96638.78
2023-03-12T09:53:00.444Z,96640.88
2023-03-12T09:55:36.366Z,96642.06
2023-03-12T09:58:05.361Z,96642.59
2023-03-12T10:00:37.048Z,96641.38
2023-03-12T10:03:33.521Z,96640.22
2023-03-12T10:06:16.042Z,96642.38
2023-03-12T10:09:08.031Z,96652.66
2023-03-12T10:11:54.096Z,96655.22
2023-03-12T10:14:46.754Z,96649.81
2023-03-12T10:17:44.094Z,96643.16
2023-03-12T10:20:47.612Z,96637.47
2023-03-12T10:23:30.359Z,96637.25
2023-03-12T10:26:11.408Z,96637.31
2023-03-12T10:28:46.122Z,96633.66
2023-03-12T10:31:23.076Z,96640.53
2023-03-12T10:33:57.638Z,96648.69
2023-03-12T10:36:35.452Z,96644.41
2023-03-12T10:39:05.581Z,96634.44
2023-03-12T10:41:35.889Z,96630.91
2023-03-12T10:44:10.700Z,96638.06
2023-03-12T10:47:01.970Z,96635.75
2023-03-12T10:49:35.003Z,96638.84
2023-03-12T10:52:14.260Z,96630.28
2023-03-12T10:54:45.099Z,96634.50
2023-03-12T10:57:17.285Z,96642.38
2023-03-12T10:59:48.829Z,96637.63
2023-03-12T11:02:34.927Z,96639.97
2023-03-12T11:05:19.583Z,96638.75
2023-03-12T11:07:48.301Z,96644.28
2023-03-12T11:10:23.137Z,96641.31
2023-03-12T11:13:06.606Z,96644.41
2023-03-12T11:15:44.283Z,96646.03
2023-03-12T11:18:30.287Z,96645.00
2023-03-12T11:21:15.565Z,96644.34
2023-03-12T11:24:08.581Z,96647.22
2023-03-12T11:26:51.091Z,96646.38
2023-03-12T11:29:31.459Z,96649.53
2023-03-12T11:32:07.775Z,96642.81
2023-03-12T11:34:41.149Z,96640.84
2023-03-12T11:37:19.330Z,96642.41
2023-03-12T11:40:11.187Z,96643.13
2023-03-12T11:43:10.903Z,96646.94
2023-03-12T11:46:05.810Z,96637.16
2023-03-12T11:48:50.507Z,96628.50
2023-03-12T11:51:33.383Z,96631.47
2023-03-12T11:54:33.714Z,96623.25
2023-03-12T11:57:14.788Z,96619.25
2023-03-12T12:00:09.249Z,96622.09
2023-03-12T12:03:14.795Z,96623.69
2023-03-12T12:05:54.576Z,96619.38
2023-03-12T12:08:44.110Z,96616.25
2023-03-12T12:11:22.573Z,96605.28
2023-03-12T12:14:11.553Z,96603.00
2023-03-12T12:17:06.891Z,96597.97
2023-03-12T12:20:00.818Z,96600.06
2023-03-12T12:22:44.148Z,96595.25
2023-03-12T12:25:39.476Z,96599.56
2023-03-12T12:28:54.278Z,96598.53
2023-03-12T12:31:32.942Z,96594.75
2023-03-12T12:34:38.802Z,96590.72
2023-03-12T12:37:46.508Z,96586.19
2023-03-12T12:40:24.539Z,96584.06
2023-03-12T12:43:05.392Z,96572.44
2023-03-12T12:45:34.373Z,96576.00
2023-03-12T12:48:12.506Z,96568.59
2023-03-12T12:50:41.411Z,96570.13
2023-03-12T12:53:25.347Z,96565.97
2023-03-12T12:56:11.702Z,96565.06
2023-03-12T12:59:07.026Z,96569.88
2023-03-12T13:01:38.582Z,96568.97
2023-03-12T13:04:18.351Z,96562.34
2023-03-12T13:06:59.931Z,96574.56
2023-03-12T13:09:44.783Z,96564.50
2023-03-12T13:12:19.865Z,96567.78
2023-03-12T13:14:50.761Z,96582.22
2023-03-12T13:17:34.387Z,96582.41
2023-03-12T13:20:18.338Z,96583.09
2023-03-12T13:23:03.930Z,96576.19
2023-03-12T13:25:59.821Z,96582.63
2023-03-12T13:28:36.830Z,96576.09
2023-03-12T13:31:37.555Z,96575.03
2023-03-12T13:34:51.962Z,96571.66
2023-03-12T13:37:59.518Z,96570.41
2023-03-12T13:41:02.158Z,96567.34
2023-03-12T13:43:51.781Z,96549.81
2023-03-12T13:46:38.477Z,96553.75
2023-03-12T13:49:15.189Z,96559.91
2023-03-12T13:52:03.424Z,96571.88
2023-03-12T13:54:36.205Z,96572.16
2023-03-12T13:57:21.789Z,96562.06
2023-03-12T13:59:52.528Z,96559.91
2023-03-12T14:02:28.801Z,96552.34
2023-03-12T14:05:07.437Z,96549.69
2023-03-12T14:08:12.100Z,96563.25
2023-03-12T14:11:10.398Z,96563.25
2023-03-12T14:14:18.496Z,96563.88
2023-03-12T14:16:53.958Z,96563.34
2023-03-12T14:19:27.704Z,96567.53
2023-03-12T14:22:01.357Z,96567.53
2023-03-12T14:24:34.861Z,96556.34
2023-03-12T14:27:06.962Z,96561.72
2023-03-12T14:29:42.166Z,96562.88
2023-03-12T14:32:20.720Z,96550.22
2023-03-12T14:34:56.635Z,96552.50
2023-03-12T14:37:33.136Z,96553.16
2023-03-12T14:40:07.750Z,96551.97
2023-03-12T14:42:38.053Z,96551.38
2023-03-12T14:45:18.945Z,96547.59
2023-03-12T14:47:50.025Z,96551.06
2023-03-12T14:50:20.925Z,96553.78
2023-03-12T14:52:49.914Z,96551.53
2023-03-12T14:55:22.882Z,96548.09
2023-03-12T14:58:04.785Z,96557.63
2023-03-12T15:00:35.439Z,96544.63
2023-03-12T15:03:14.339Z,96539.38
2023-03-12T15:05:48.173Z,96538.88
2023-03-12T15:08:18.171Z,96545.81
2023-03-12T15:10:53.708Z,96541.91
2023-03-12T15:13:25.570Z,96551.78
2023-03-12T15:15:59.858Z,96558.69
2023-03-12T15:18:32.585Z,96547.81
2023-03-12T15:21:04.237Z,96549.03
2023-03-12T15:23:37.217Z,96548.47
2023-03-12T15:26:27.362Z,96537.19
2023-03-12T15:29:03.114Z,96549.22
2023-03-12T15:31:44.979Z,96551.09
2023-03-12T15:34:16.512Z,96537.97
2023-03-12T15:36:51.776Z,96534.59
2023-03-12T15:39:28.412Z,96536.19
2023-03-12T15:42:02.273Z,96535.84
2023-03-12T15:44:46.983Z,96543.84
2023-03-12T15:47:20.461Z,96551.19
2023-03-12T15:49:54.701Z,96539.66
2023-03-12T15:52:33.379Z,96534.22
2023-03-12T15:55:22.929Z,96535.63
2023-03-12T15:57:53.773Z,96537.69
2023-03-12T16:00:26.821Z,96528.22
2023-03-12T16:02:59.893Z,96531.19
2023-03-12T16:05:33.345Z,96540.72
2023-03-12T16:08:12.139Z,96537.97
2023-03-12T16:10:41.364Z,96541.41
2023-03-12T16:13:16.056Z,96554.81
2023-03-12T16:15:47.455Z,96545.19
2023-03-12T16:18:21.042Z,96543.88
2023-03-12T16:20:51.031Z,96535.44
2023-03-12T16:23:20.225Z,96536.56
2023-03-12T16:25:53.105Z,96546.78
2023-03-12T16:28:24.352Z,96549.19
2023-03-12T16:30:54.061Z,96538.72
2023-03-12T16:33:25.821Z,96536.97
2023-03-12T16:35:54.671Z,96545.41
2023-03-12T16:38:23.208Z,96542.22
2023-03-12T16:40:53.925Z,96548.25
2023-03-12T16:43:25.606Z,96557.16
2023-03-12T16:45:56.718Z,96556.78
2023-03-12T16:48:26.724Z,96567.78
2023-03-12T16:50:58.941Z,96567.88
2023-03-12T16:53:28.012Z,96566.41
2023-03-12T16:56:00.888Z,96568.59
2023-03-12T16:58:31.440Z,96563.59
2023-03-12T17:01:00.640Z,96559.19
2023-03-12T17:03:36.394Z,96559.38
2023-03-12T17:06:08.528Z,96554.56
2023-03-12T17:08:37.051Z,96551.66
2023-03-12T17:11:18.825Z,96553.78
2023-03-12T17:13:52.099Z,96553.16
2023-03-12T17:16:20.635Z,96550.16
2023-03-12T17:18:50.523Z,96558.78
2023-03-12T17:21:23.191Z,96564.19
2023-03-12T17:23:56.766Z,96574.50
2023-03-12T17:26:25.464Z,96582.00
2023-03-12T17:28:54.003Z,96582.47
2023-03-12T17:31:24.699Z,96570.47
2023-03-12T17:33:54.617Z,96576.13
2023-03-12T17:36:23.175Z,96579.81
2023-03-12T17:38:51.648Z,96587.00
2023-03-12T17:41:26.604Z,96586.84
2023-03-12T17:43:58.866Z,96580.34
2023-03-12T17:46:27.419Z,96572.44
2023-03-12T17:48:57.481Z,96572.81
2023-03-12T17:51:26.888Z,96569.06
2023-03-12T17:53:55.663Z,96570.81
2023-03-12T17:56:24.148Z,96582.59
2023-03-12T17:58:52.936Z,96577.47
2023-03-12T18:01:21.625Z,96570.66
2023-03-12T18:03:51.280Z,96577.03
2023-03-12T18:06:21.178Z,96578.72
2023-03-12T18:08:50.059Z,96573.88
2023-03-12T18:11:18.718Z,96579.50
2023-03-12T18:13:49.670Z,96575.13
2023-03-12T18:16:18.398Z,96573.00
2023-03-12T18:18:46.841Z,96577.09
2023-03-12T18:21:15.296Z,96578.22
2023-03-12T18:23:46.152Z,96587.59
2023-03-12T18:26:14.659Z,96593.78
2023-03-12T18:28:43.636Z,96588.75
2023-03-12T18:31:13.210Z,96598.69
2023-03-12T18:33:41.960Z,96596.28
2023-03-12T18:36:10.780Z,96597.28
2023-03-12T18:38:39.596Z,96595.91
2023-03-12T18:41:12.399Z,96604.63
2023-03-12T18:43:42.123Z,96612.53
2023-03-12T18:46:11.436Z,96614.94
2023-03-12T18:48:42.931Z,96620.19
2023-03-12T18:51:12.481Z,96616.91
2023-03-12T18:53:40.933Z,96625.97
2023-03-12T18:56:10.986Z,96619.81
2023-03-12T18:58:40.054Z,96630.94
2023-03-12T19:01:08.642Z,96632.78
2023-03-12T19:03:37.608Z,96631.47
2023-03-12T19:06:09.265Z,96633.13
2023-03-12T19:08:38.346Z,96627.00
2023-03-12T19:11:08.084Z,96628.81
2023-03-12T19:13:38.497Z,96624.13
2023-03-12T19:16:10.311Z,96631.00
2023-03-12T19:18:40.588Z,96634.50
2023-03-12T19:21:12.978Z,96629.75
2023-03-12T19:23:41.542Z,96638.03
2023-03-12T19:26:10.064Z,96633.88
2023-03-12T19:28:40.200Z,96628.16
2023-03-12T19:31:11.626Z,96641.13
2023-03-12T19:33:40.193Z,96638.91
2023-03-12T19:36:10.004Z,96646.25
2023-03-12T19:38:38.588Z,96635.72
2023-03-12T19:41:09.838Z,96634.59
2023-03-12T19:43:40.785Z,96636.44
2023-03-12T19:46:09.488Z,96643.75
2023-03-12T19:48:38.327Z,96640.91
2023-03-12T19:51:08.202Z,96640.59
2023-03-12T19:53:36.971Z,96645.41
2023-03-12T19:56:06.430Z,96657.56
2023-03-12T19:58:35.185Z,96660.28
2023-03-12T20:01:05.650Z,96661.63
2023-03-12T20:03:34.366Z,96661.00
2023-03-12T20:06:02.833Z,96663.78
2023-03-12T20:08:31.414Z,96661.06
2023-03-12T20:11:08.993Z,96671.53
2023-03-12T20:13:39.005Z,96661.25
2023-03-12T20:16:11.696Z,96656.25
2023-03-12T20:18:40.190Z,96669.94
2023-03-12T20:21:08.659Z,96665.56
2023-03-12T20:23:37.174Z,96668.13
2023-03-12T20:26:06.284Z,96663.50
2023-03-12T20:28:35.251Z,96663.28
2023-03-12T20:31:11.155Z,96660.06
2023-03-12T20:33:40.173Z,96657.59
2023-03-12T20:36:11.637Z,96652.69
2023-03-12T20:38:41.040Z,96651.34
2023-03-12T20:41:14.201Z,96652.81
2023-03-12T20:43:43.902Z,96650.31
2023-03-12T20:46:14.472Z,96646.72
2023-03-12T20:48:42.792Z,96644.94
2023-03-12T20:51:11.755Z,96647.38
2023-03-12T20:53:40.572Z,96652.25
2023-03-12T20:56:10.040Z,96640.63
2023-03-12T20:58:38.584Z,96649.53
2023-03-12T21:01:07.843Z,96658.69
2023-03-12T21:03:38.126Z,96663.53
2023-03-12T21:06:10.504Z,96664.53
2023-03-12T21:08:38.848Z,96669.91
2023-03-12T21:11:08.465Z,96664.22
2023-03-12T21:13:38.529Z,96669.63
2023-03-12T21:16:07.843Z,96666.09
2023-03-12T21:18:37.721Z,96671.50
2023-03-12T21:21:08.800Z,96667.22
2023-03-12T21:23:38.877Z,96666.34
2023-03-12T21:26:09.818Z,96667.13
2023-03-12T21:28:38.289Z,96669.91
2023-03-12T21:31:09.770Z,96665.31
2023-03-12T21:33:40.176Z,96670.13
2023-03-12T21:36:12.586Z,96677.28
2023-03-12T21:38:44.060Z,96677.78
2023-03-12T21:41:15.615Z,96679.91
2023-03-12T21:43:46.663Z,96672.50
2023-03-12T21:46:19.050Z,96679.31
2023-03-12T21:48:49.949Z,96662.25
2023-03-12T21:51:19.683Z,96668.06
2023-03-12T21:53:48.409Z,96668.56
2023-03-12T21:56:17.301Z,96668.47
2023-03-12T21:58:46.088Z,96666.28
2023-03-12T22:01:17.392Z,96660.56
2023-03-12T22:03:48.613Z,96659.75
2023-03-12T22:06:18.009Z,96656.75
2023-03-12T22:08:49.248Z,96658.97
2023-03-12T22:11:18.337Z,96654.75
2023-03-12T22:13:46.796Z,96654.44
2023-03-12T22:16:16.272Z,96647.16
2023-03-12T22:18:46.776Z,96647.94
2023-03-12T22:21:19.618Z,96641.94
2023-03-12T22:23:51.385Z,96650.34
2023-03-12T22:26:21.803Z,96642.22
2023-03-12T22:28:51.724Z,96643.00
2023-03-12T22:31:22.670Z,96644.75
2023-03-12T22:33:51.344Z,96632.31
2023-03-12T22:36:22.857Z,96633.91
2023-03-12T22:38:51.479Z,96633.09
2023-03-12T22:41:22.928Z,96639.41
2023-03-12T22:43:54.311Z,96640.00
2023-03-12T22:46:25.199Z,96637.88
2023-03-12T22:48:56.405Z,96632.47
2023-03-12T22:51:27.299Z,96631.97
2023-03-12T22:53:56.709Z,96618.81
2023-03-12T22:56:29.852Z,96622.31
2023-03-12T22:58:58.699Z,96619.41
2023-03-12T23:01:28.175Z,96616.28
2023-03-12T23:03:56.673Z,96612.84
2023-03-12T23:06:32.172Z,96604.81
2023-03-12T23:09:01.004Z,96610.81
2023-03-12T23:11:31.045Z,96612.59
2023-03-12T23:13:59.661Z,96608.06
2023-03-12T23:16:31.884Z,96607.84
2023-03-12T23:19:01.192Z,96614.69
2023-03-12T23:21:32.121Z,96613.66
2023-03-12T23:24:00.974Z,96615.44
2023-03-12T23:26:30.104Z,96605.19
2023-03-12T23:29:00.561Z,96601.66
2023-03-12T23:31:30.346Z,96606.78
2023-03-12T23:34:01.280Z,96599.53
2023-03-12T23:36:31.918Z,96597.13
2023-03-12T23:39:00.660Z,96587.41
2023-03-12T23:41:30.516Z,96591.22
2023-03-12T23:44:00.244Z,96596.41
2023-03-12T23:46:29.324Z,96583.03
2023-03-12T23:48:58.418Z,96586.47
2023-03-12T23:51:34.822Z,96591.47
2023-03-12T23:54:05.958Z,96581.78
2023-03-12T23:56:37.516Z,96575.59
2023-03-12T23:59:08.445Z,96566.34
